No particular awareness of the weather is required.    There are no Weather-warnings


Meteo18 Weather Cam more information Meteo18 Weather Cam


Thunder radar more information blitzortung!


Rain radar more information rain snow radar


Visit our other weather sites:

Template documentation
and downloads

And another site



Weather Underground History page Text

Daily Summary for August 14, 2017 Units:  English    Metric   Both
« Previous Day
Next Day »
Daily Weekly Monthly Yearly Custom
  High: Low: Average:
Temperature: TemperatureC °F 12.4 °F 20.8 °F
Dew Point: DewpointC °F 11.5 °F 14.7 °F
Humidity: Humidity % 41 % 71 %
Wind Speed: WindSpeedKMH mph 0.0 mph 1.9 mph
Wind Gust: WindSpeedGustKMH mph - -
Wind:- - SSE
Pressure: PressurehPa in 1015.5 in -
Precipitation: 0.0 in    
Historical Graphs
 
 
Tabular Data for August 14, 2017
Time Temperature Dew Point Pressure Wind Wind Speed Wind Gust Humidity Rainfall Rate (Hourly)
TemperatureC °F DewpointC °F PressurehPa in Calm     Humidity % HourlyPrecipMM in
00:02 15.5 °F 13.2 °F 1021.6 in Calm   1.6 mph 86 % 0.0 in
00:07 15.4 °F 13.1 °F 1021.2 in Calm   1.6 mph 86 % 0.0 in
00:12 15.3 °F 13.0 °F 1021.2 in Calm   1.6 mph 86 % 0.0 in
00:17 15.2 °F 12.9 °F 1021.2 in Calm   1.6 mph 86 % 0.0 in
00:22 15.2 °F 12.9 °F 1021.2 in Calm   1.6 mph 86 % 0.0 in
00:32 15.1 °F 13.0 °F 1021.2 in Calm   1.6 mph 87 % 0.0 in
00:42 15.0 °F 12.9 °F 1021.2 in Calm   1.6 mph 87 % 0.0 in
00:47 14.9 °F 12.8 °F 1021.2 in Calm   1.6 mph 87 % 0.0 in
00:57 14.7 °F 12.7 °F 1021.2 in Calm   3.2 mph 88 % 0.0 in
01:02 14.8 °F 12.8 °F 1020.9 in Calm   3.2 mph 88 % 0.0 in
01:07 14.8 °F 12.8 °F 1020.9 in Calm   3.2 mph 88 % 0.0 in
01:12 14.7 °F 12.7 °F 1020.9 in Calm   3.2 mph 88 % 0.0 in
01:17 14.6 °F 12.6 °F 1020.9 in Calm   3.2 mph 88 % 0.0 in
01:22 14.5 °F 12.5 °F 1021.2 in Calm   3.2 mph 88 % 0.0 in
01:32 14.4 °F 12.6 °F 1020.9 in Calm   3.2 mph 89 % 0.0 in
01:37 14.4 °F 12.6 °F 1020.9 in Calm   3.2 mph 89 % 0.0 in
01:42 14.4 °F 12.6 °F 1020.9 in Calm   3.2 mph 89 % 0.0 in
01:47 14.4 °F 12.6 °F 1020.9 in Calm   3.2 mph 89 % 0.0 in
01:52 14.4 °F 12.6 °F 1020.9 in Calm     89 % 0.0 in
01:57 14.4 °F 12.4 °F 1020.9 in NNE 1.6 mph 1.6 mph 88 % 0.0 in
02:02 14.3 °F 12.3 °F 1020.5 in Calm   3.2 mph 88 % 0.0 in
02:07 14.2 °F 12.4 °F 1020.5 in North 1.6 mph 3.2 mph 89 % 0.0 in
02:12 14.2 °F 12.4 °F 1020.5 in Calm   3.2 mph 89 % 0.0 in
02:17 14.2 °F 12.4 °F 1020.5 in Calm   1.6 mph 89 % 0.0 in
02:22 14.2 °F 12.4 °F 1020.5 in Calm   1.6 mph 89 % 0.0 in
02:27 14.2 °F 12.4 °F 1020.5 in Calm   1.6 mph 89 % 0.0 in
02:32 14.1 °F 12.3 °F 1020.5 in Calm   1.6 mph 89 % 0.0 in
02:37 14.1 °F 12.3 °F 1020.5 in Calm   1.6 mph 89 % 0.0 in
02:42 14.1 °F 12.3 °F 1020.5 in Calm   1.6 mph 89 % 0.0 in
02:47 14.1 °F 12.3 °F 1020.5 in Calm   1.6 mph 89 % 0.0 in
02:57 13.9 °F 12.3 °F 1020.5 in Calm   1.6 mph 90 % 0.0 in
03:02 13.9 °F 12.3 °F 1020.2 in Calm   1.6 mph 90 % 0.0 in
03:07 13.9 °F 12.3 °F 1020.2 in Calm   1.6 mph 90 % 0.0 in
03:12 13.8 °F 12.2 °F 1020.2 in Calm   1.6 mph 90 % 0.0 in
03:17 13.8 °F 12.2 °F 1020.2 in Calm     90 % 0.0 in
03:22 13.8 °F 12.2 °F 1020.2 in Calm     90 % 0.0 in
03:27 13.8 °F 12.2 °F 1020.2 in Calm     90 % 0.0 in
03:32 13.9 °F 12.3 °F 1020.2 in Calm     90 % 0.0 in
03:37 13.9 °F 12.3 °F 1020.2 in Calm     90 % 0.0 in
03:42 13.9 °F 12.3 °F 1020.2 in Calm     90 % 0.0 in
03:52 14.0 °F 12.4 °F 1020.2 in Calm     90 % 0.0 in
03:57 14.0 °F 12.4 °F 1020.2 in Calm     90 % 0.0 in
04:02 14.0 °F 12.4 °F 1020.2 in Calm     90 % 0.0 in
04:07 13.8 °F 12.2 °F 1020.2 in Calm     90 % 0.0 in
04:12 13.8 °F 12.4 °F 1020.2 in Calm     91 % 0.0 in
04:17 13.8 °F 12.4 °F 1020.2 in Calm     91 % 0.0 in
04:22 13.7 °F 12.3 °F 1020.2 in Calm     91 % 0.0 in
04:27 13.6 °F 12.2 °F 1019.9 in Calm     91 % 0.0 in
04:32 13.6 °F 12.2 °F 1020.2 in Calm     91 % 0.0 in
04:37 13.6 °F 12.3 °F 1019.9 in Calm     92 % 0.0 in
04:42 13.8 °F 12.5 °F 1019.9 in Calm     92 % 0.0 in
04:47 13.8 °F 12.4 °F 1019.9 in Calm     91 % 0.0 in
04:52 13.7 °F 12.3 °F 1019.9 in Calm     91 % 0.0 in
04:57 13.7 °F 12.4 °F 1019.9 in Calm     92 % 0.0 in
05:02 13.6 °F 12.3 °F 1019.9 in Calm     92 % 0.0 in
05:12 13.1 °F 11.7 °F 1019.9 in Calm     91 % 0.0 in
05:17 12.9 °F 11.6 °F 1019.9 in Calm     92 % 0.0 in
05:22 12.9 °F 11.8 °F 1019.9 in Calm     93 % 0.0 in
05:27 13.0 °F 11.9 °F 1019.9 in Calm     93 % 0.0 in
05:32 12.9 °F 12.0 °F 1019.9 in Calm     94 % 0.0 in
05:42 13.0 °F 12.1 °F 1019.9 in Calm     94 % 0.0 in
05:47 12.9 °F 11.8 °F 1019.9 in Calm     93 % 0.0 in
05:52 12.9 °F 12.0 °F 1019.9 in Calm     94 % 0.0 in
05:57 12.8 °F 11.9 °F 1019.9 in Calm     94 % 0.0 in
06:02 12.7 °F 11.8 °F 1019.9 in Calm     94 % 0.0 in
06:12 12.5 °F 11.6 °F 1019.9 in Calm     94 % 0.0 in
06:17 12.4 °F 11.5 °F 1019.9 in Calm     94 % 0.0 in
06:22 12.5 °F 11.7 °F 1019.9 in Calm     95 % 0.0 in
06:32 12.6 °F 11.8 °F 1019.9 in North 1.6 mph 3.2 mph 95 % 0.0 in
06:37 12.4 °F 11.5 °F 1019.9 in North 3.2 mph 3.2 mph 94 % 0.0 in
06:42 12.4 °F 11.6 °F 1019.9 in North 3.2 mph 3.2 mph 95 % 0.0 in
06:47 12.5 °F 11.7 °F 1019.9 in North 1.6 mph 3.2 mph 95 % 0.0 in
06:52 12.5 °F 11.7 °F 1019.5 in North 1.6 mph 4.8 mph 95 % 0.0 in
06:57 12.4 °F 11.5 °F 1019.5 in NNE 1.6 mph 4.8 mph 94 % 0.0 in
07:02 12.4 °F 11.6 °F 1019.5 in North 3.2 mph 3.2 mph 95 % 0.0 in
07:07 12.6 °F 11.7 °F 1019.5 in North 1.6 mph 3.2 mph 94 % 0.0 in
07:12 12.7 °F 11.8 °F 1019.5 in Calm   3.2 mph 94 % 0.0 in
07:17 12.9 °F 12.0 °F 1019.5 in Calm   3.2 mph 94 % 0.0 in
07:22 13.2 °F 12.3 °F 1019.5 in Calm   3.2 mph 94 % 0.0 in
07:27 13.3 °F 12.4 °F 1019.5 in Calm     94 % 0.0 in
07:32 13.4 °F 12.3 °F 1019.9 in Calm     93 % 0.0 in
07:37 13.6 °F 12.5 °F 1019.5 in Calm     93 % 0.0 in
07:42 13.8 °F 12.7 °F 1019.5 in Calm     93 % 0.0 in
07:47 14.1 °F 13.0 °F 1019.5 in North 1.6 mph   93 % 0.0 in
07:57 14.2 °F 12.9 °F 1019.5 in NNE 3.2 mph 3.2 mph 92 % 0.0 in
08:02 14.4 °F 13.1 °F 1019.5 in Calm   3.2 mph 92 % 0.0 in
08:12 14.9 °F 13.4 °F 1019.5 in North 1.6 mph 4.8 mph 91 % 0.0 in
08:17 15.1 °F 13.6 °F 1019.9 in Calm   3.2 mph 91 % 0.0 in
08:22 15.3 °F 13.7 °F 1019.9 in North 1.6 mph 3.2 mph 90 % 0.0 in
08:32 15.5 °F 13.7 °F 1019.5 in Calm   4.8 mph 89 % 0.0 in
08:37 15.7 °F 13.9 °F 1019.5 in North 1.6 mph 4.8 mph 89 % 0.0 in
08:42 15.9 °F 14.1 °F 1019.5 in North 1.6 mph 4.8 mph 89 % 0.0 in
08:47 16.1 °F 14.3 °F 1019.9 in NNE 1.6 mph 3.2 mph 89 % 0.0 in
08:52 16.2 °F 14.4 °F 1019.9 in NNE 1.6 mph 4.8 mph 89 % 0.0 in
09:02 16.7 °F 14.7 °F 1019.5 in NNE 1.6 mph 4.8 mph 88 % 0.0 in
09:12 17.3 °F 14.9 °F 1019.9 in Calm   4.8 mph 86 % 0.0 in
09:17 17.7 °F 15.1 °F 1019.9 in NNE 1.6 mph 3.2 mph 85 % 0.0 in
09:22 17.9 °F 15.3 °F 1019.5 in Calm   3.2 mph 85 % 0.0 in
09:32 18.7 °F 15.6 °F 1019.5 in ENE 3.2 mph 3.2 mph 82 % 0.0 in
09:37 18.7 °F 15.8 °F 1019.5 in Calm   4.8 mph 83 % 0.0 in
09:42 18.9 °F 15.8 °F 1019.5 in Calm   4.8 mph 82 % 0.0 in
09:47 19.0 °F 15.7 °F 1019.5 in ENE 3.2 mph 6.4 mph 81 % 0.0 in
09:52 19.2 °F 15.9 °F 1019.5 in ENE 3.2 mph 6.4 mph 81 % 0.0 in
09:57 19.5 °F 16.0 °F 1019.5 in ENE 4.8 mph 6.4 mph 80 % 0.0 in
10:02 19.6 °F 15.9 °F 1019.5 in NE 3.2 mph 6.4 mph 79 % 0.0 in
10:12 20.3 °F 16.3 °F 1019.5 in ENE 1.6 mph 8.0 mph 78 % 0.0 in
10:17 20.3 °F 16.1 °F 1019.5 in Calm   8.0 mph 77 % 0.0 in
10:22 20.8 °F 16.2 °F 1019.5 in East 6.4 mph 11.3 mph 75 % 0.0 in
10:27 21.0 °F 16.4 °F 1019.2 in ESE 1.6 mph 11.3 mph 75 % 0.0 in
10:32 21.3 °F 16.5 °F 1019.2 in ENE 1.6 mph 11.3 mph 74 % 0.0 in
10:37 21.4 °F 16.4 °F 1019.5 in ESE 4.8 mph 11.3 mph 73 % 0.0 in
10:42 21.3 °F 16.5 °F 1019.2 in ENE 4.8 mph 11.3 mph 74 % 0.0 in
10:47 21.6 °F 16.8 °F 1019.2 in ENE 4.8 mph 12.9 mph 74 % 0.0 in
10:57 22.1 °F 16.8 °F 1019.2 in NE 3.2 mph 12.9 mph 72 % 0.0 in
11:02 22.2 °F 16.7 °F 1019.2 in East 4.8 mph 9.7 mph 71 % 0.0 in
11:12 22.3 °F 16.8 °F 1019.2 in ESE 4.8 mph 9.7 mph 71 % 0.0 in
11:17 22.5 °F 17.0 °F 1019.2 in ENE 8.0 mph 9.7 mph 71 % 0.0 in
11:22 22.5 °F 17.0 °F 1019.2 in East 6.4 mph 11.3 mph 71 % 0.0 in
11:27 22.5 °F 16.8 °F 1019.2 in East 3.2 mph 12.9 mph 70 % 0.0 in
11:32 22.7 °F 16.9 °F 1019.2 in ENE 3.2 mph 12.9 mph 70 % 0.0 in
11:37 22.8 °F 16.8 °F 1018.8 in ESE 3.2 mph 12.9 mph 69 % 0.0 in
11:42 23.1 °F 17.1 °F 1018.8 in ENE 1.6 mph 16.1 mph 69 % 0.0 in
11:47 23.3 °F 17.1 °F 1018.8 in East 11.3 mph 16.1 mph 68 % 0.0 in
11:52 23.4 °F 17.4 °F 1018.8 in ENE 4.8 mph 16.1 mph 69 % 0.0 in
11:57 23.3 °F 16.8 °F 1018.8 in ENE 8.0 mph 12.9 mph 67 % 0.0 in
12:02 23.4 °F 17.4 °F 1018.8 in NE 11.3 mph 12.9 mph 69 % 0.0 in
12:12 24.1 °F 17.6 °F 1018.8 in SE 4.8 mph 16.1 mph 67 % 0.0 in
12:17 24.3 °F 17.1 °F 1018.8 in East 8.0 mph 16.1 mph 64 % 0.0 in
12:22 24.0 °F 17.0 °F 1018.8 in ENE 8.0 mph 16.1 mph 65 % 0.0 in
12:27 24.3 °F 17.3 °F 1018.5 in ESE 6.4 mph 16.1 mph 65 % 0.0 in
12:32 24.8 °F 17.3 °F 1018.5 in SE 1.6 mph 16.1 mph 63 % 0.0 in
12:37 24.7 °F 16.9 °F 1018.5 in ENE 3.2 mph 16.1 mph 62 % 0.0 in
12:42 25.1 °F 17.6 °F 1018.5 in SSE 6.4 mph 17.7 mph 63 % 0.0 in
12:47 25.2 °F 16.9 °F 1018.5 in SSE 3.2 mph 17.7 mph 60 % 0.0 in
12:52 25.4 °F 17.1 °F 1018.5 in SE 3.2 mph 14.5 mph 60 % 0.0 in
12:57 25.8 °F 17.2 °F 1018.5 in SSE 6.4 mph 14.5 mph 59 % 0.0 in
13:02 25.7 °F 16.5 °F 1018.5 in ENE 6.4 mph 12.9 mph 57 % 0.0 in
13:07 25.7 °F 16.8 °F 1018.2 in WSW 3.2 mph 12.9 mph 58 % 0.0 in
13:12 25.9 °F 16.7 °F 1018.2 in ESE 8.0 mph 14.5 mph 57 % 0.0 in
13:17 26.2 °F 16.7 °F 1018.2 in ESE 3.2 mph 17.7 mph 56 % 0.0 in
13:22 26.1 °F 16.6 °F 1018.2 in SSE 3.2 mph 17.7 mph 56 % 0.0 in
13:32 26.3 °F 17.6 °F 1017.8 in South 4.8 mph 9.7 mph 59 % 0.0 in
13:42 26.0 °F 16.8 °F 1017.8 in SE 1.6 mph 11.3 mph 57 % 0.0 in
13:47 26.2 °F 17.0 °F 1017.8 in ESE 4.8 mph 9.7 mph 57 % 0.0 in
13:52 26.2 °F 17.3 °F 1017.8 in ENE 8.0 mph 12.9 mph 58 % 0.0 in
13:57 26.4 °F 16.9 °F 1017.8 in SE 4.8 mph 12.9 mph 56 % 0.0 in
14:02 26.7 °F 17.5 °F 1017.5 in ESE 6.4 mph 11.3 mph 57 % 0.0 in
14:07 26.9 °F 17.1 °F 1017.5 in SW 1.6 mph 11.3 mph 55 % 0.0 in
14:12 26.9 °F 17.7 °F 1017.5 in South 3.2 mph 14.5 mph 57 % 0.0 in
14:17 27.0 °F 18.0 °F 1017.5 in SSW 3.2 mph 14.5 mph 58 % 0.0 in
14:22 26.9 °F 17.4 °F 1017.5 in SSE 3.2 mph 14.5 mph 56 % 0.0 in
14:32 26.8 °F 16.7 °F 1017.5 in SE 4.8 mph 14.5 mph 54 % 0.0 in
14:37 27.2 °F 16.5 °F 1017.5 in South 6.4 mph 14.5 mph 52 % 0.0 in
14:42 27.0 °F 16.0 °F 1017.5 in SW 4.8 mph 11.3 mph 51 % 0.0 in
14:52 27.6 °F 16.9 °F 1017.5 in SE 6.4 mph 12.9 mph 52 % 0.0 in
14:57 27.7 °F 16.9 °F 1017.2 in South 3.2 mph 12.9 mph 52 % 0.0 in
15:02 27.8 °F 16.7 °F 1017.2 in East 8.0 mph 12.9 mph 51 % 0.0 in
15:07 27.7 °F 16.0 °F 1017.2 in South 3.2 mph 11.3 mph 49 % 0.0 in
15:12 27.7 °F 16.3 °F 1017.2 in East 3.2 mph 11.3 mph 50 % 0.0 in
15:17 27.8 °F 16.4 °F 1017.2 in SSE 1.6 mph 11.3 mph 50 % 0.0 in
15:22 28.1 °F 16.7 °F 1017.2 in Calm   11.3 mph 50 % 0.0 in
15:32 28.5 °F 16.7 °F 1016.8 in SE 1.6 mph 8.0 mph 49 % 0.0 in
15:37 28.5 °F 17.1 °F 1016.8 in East 6.4 mph 8.0 mph 50 % 0.0 in
15:42 28.7 °F 16.9 °F 1016.8 in South 3.2 mph 8.0 mph 49 % 0.0 in
15:47 28.6 °F 16.2 °F 1016.8 in East 6.4 mph 8.0 mph 47 % 0.0 in
15:52 28.4 °F 16.7 °F 1016.8 in SSE 3.2 mph 11.3 mph 49 % 0.0 in
15:57 28.5 °F 16.4 °F 1016.5 in SSE 4.8 mph 11.3 mph 48 % 0.0 in
16:02 28.3 °F 16.2 °F 1016.5 in SW 6.4 mph 11.3 mph 48 % 0.0 in
16:07 28.3 °F 16.6 °F 1016.5 in SSE 4.8 mph 11.3 mph 49 % 0.0 in
16:12 28.4 °F 16.7 °F 1016.5 in SSW 1.6 mph 9.7 mph 49 % 0.0 in
16:17 28.6 °F 16.2 °F 1016.5 in SSW 4.8 mph 11.3 mph 47 % 0.0 in
16:22 28.6 °F 15.5 °F 1016.5 in SW 8.0 mph 11.3 mph 45 % 0.0 in
16:32 28.2 °F 15.1 °F 1016.5 in Calm   16.1 mph 45 % 0.0 in
16:37 28.4 °F 15.3 °F 1016.1 in WSW 4.8 mph 16.1 mph 45 % 0.0 in
16:42 28.7 °F 15.6 °F 1016.5 in South 6.4 mph 11.3 mph 45 % 0.0 in
16:47 28.6 °F 15.2 °F 1016.1 in West 1.6 mph 14.5 mph 44 % 0.0 in
16:52 28.7 °F 15.6 °F 1016.1 in SW 6.4 mph 14.5 mph 45 % 0.0 in
16:57 28.6 °F 16.5 °F 1016.1 in SW 6.4 mph 14.5 mph 48 % 0.0 in
17:02 28.8 °F 17.0 °F 1016.1 in ESE 3.2 mph 12.9 mph 49 % 0.0 in
17:07 29.1 °F 15.6 °F 1016.1 in East 1.6 mph 16.1 mph 44 % 0.0 in
17:12 29.4 °F 15.5 °F 1016.1 in SE 1.6 mph 16.1 mph 43 % 0.0 in
17:22 28.4 °F 15.0 °F 1016.1 in WSW 6.4 mph 14.5 mph 44 % 0.0 in
17:27 28.4 °F 15.3 °F 1016.1 in West 3.2 mph 14.5 mph 45 % 0.0 in
17:32 28.7 °F 15.2 °F 1016.1 in South 3.2 mph 12.9 mph 44 % 0.0 in
17:37 28.9 °F 15.1 °F 1015.8 in WSW 6.4 mph 9.7 mph 43 % 0.0 in
17:42 28.9 °F 15.8 °F 1016.1 in SW 6.4 mph 9.7 mph 45 % 0.0 in
17:47 29.0 °F 16.2 °F 1016.1 in SSW 3.2 mph 14.5 mph 46 % 0.0 in
17:52 29.2 °F 15.3 °F 1015.8 in Calm   14.5 mph 43 % 0.0 in
18:17 29.6 °F 15.7 °F 1015.8 in Calm   9.7 mph 43 % 0.0 in
18:22 29.8 °F 16.6 °F 1015.8 in South 1.6 mph 9.7 mph 45 % 0.0 in
18:27 29.9 °F 15.6 °F 1015.8 in South 4.8 mph 9.7 mph 42 % 0.0 in
18:32 29.9 °F 16.0 °F 1015.8 in SW 3.2 mph 9.7 mph 43 % 0.0 in
18:37 29.9 °F 16.0 °F 1015.8 in Calm   9.7 mph 43 % 0.0 in
18:42 29.7 °F 15.4 °F 1015.8 in SW 1.6 mph 9.7 mph 42 % 0.0 in
18:52 29.4 °F 15.1 °F 1015.5 in SW 3.2 mph 8.0 mph 42 % 0.0 in
18:57 29.6 °F 16.1 °F 1015.5 in Calm   8.0 mph 44 % 0.0 in
19:02 29.7 °F 16.5 °F 1015.8 in WSW 6.4 mph 8.0 mph 45 % 0.0 in
19:12 29.4 °F 15.5 °F 1015.5 in SW 3.2 mph 8.0 mph 43 % 0.0 in
19:17 29.2 °F 15.3 °F 1015.5 in WSW 1.6 mph 8.0 mph 43 % 0.0 in
19:22 29.3 °F 16.1 °F 1015.5 in Calm   8.0 mph 45 % 0.0 in
19:27 29.4 °F 15.1 °F 1015.5 in West 3.2 mph 8.0 mph 42 % 0.0 in
19:32 29.3 °F 15.1 °F 1015.5 in WSW 4.8 mph 4.8 mph 42 % 0.0 in
19:42 29.2 °F 15.7 °F 1015.5 in Calm   4.8 mph 44 % 0.0 in
19:47 29.3 °F 15.1 °F 1015.5 in Calm   4.8 mph 42 % 0.0 in
19:52 29.4 °F 15.5 °F 1015.5 in WNW 1.6 mph 3.2 mph 43 % 0.0 in
19:57 29.4 °F 15.1 °F 1015.5 in Calm   3.2 mph 42 % 0.0 in
20:02 29.3 °F 15.4 °F 1015.5 in Calm   3.2 mph 43 % 0.0 in
20:07 29.5 °F 14.9 °F 1015.5 in Calm   3.2 mph 41 % 0.0 in
20:12 29.3 °F 15.4 °F 1015.5 in Calm   3.2 mph 43 % 0.0 in
20:17 28.8 °F 15.3 °F 1015.5 in Calm     44 % 0.0 in
20:22 28.4 °F 15.7 °F 1015.5 in Calm     46 % 0.0 in
20:32 27.7 °F 15.7 °F 1015.5 in Calm     48 % 0.0 in
20:37 27.3 °F 16.0 °F 1015.8 in Calm     50 % 0.0 in
20:42 26.9 °F 16.2 °F 1015.5 in Calm     52 % 0.0 in
20:47 26.2 °F 15.6 °F 1015.8 in Calm     52 % 0.0 in
20:52 25.9 °F 15.3 °F 1015.8 in Calm     52 % 0.0 in
20:57 25.7 °F 15.7 °F 1015.8 in Calm     54 % 0.0 in
21:02 25.6 °F 15.6 °F 1015.8 in Calm     54 % 0.0 in
21:12 25.1 °F 16.0 °F 1015.8 in Calm     57 % 0.0 in
21:17 24.9 °F 16.1 °F 1015.8 in Calm     58 % 0.0 in
21:22 24.4 °F 16.1 °F 1015.8 in Calm     60 % 0.0 in
21:32 24.1 °F 16.4 °F 1015.8 in Calm     62 % 0.0 in
21:37 23.8 °F 16.6 °F 1016.1 in Calm     64 % 0.0 in
21:42 23.4 °F 16.4 °F 1016.1 in Calm     65 % 0.0 in
21:52 22.8 °F 16.4 °F 1016.1 in Calm     67 % 0.0 in
21:57 22.7 °F 16.3 °F 1016.1 in Calm     67 % 0.0 in
22:02 22.4 °F 16.4 °F 1016.1 in Calm     69 % 0.0 in
22:12 21.7 °F 16.2 °F 1016.1 in Calm     71 % 0.0 in
22:17 21.6 °F 16.1 °F 1016.1 in Calm     71 % 0.0 in
22:22 21.8 °F 16.1 °F 1016.1 in Calm     70 % 0.0 in
22:27 21.9 °F 16.0 °F 1016.1 in Calm     69 % 0.0 in
22:32 22.0 °F 16.0 °F 1016.1 in Calm     69 % 0.0 in
22:37 21.8 °F 16.1 °F 1016.1 in Calm     70 % 0.0 in
22:42 21.5 °F 16.0 °F 1016.1 in Calm     71 % 0.0 in
22:52 21.2 °F 15.7 °F 1016.1 in Calm     71 % 0.0 in
22:57 21.1 °F 15.6 °F 1016.1 in Calm     71 % 0.0 in
23:02 21.2 °F 15.9 °F 1016.1 in Calm     72 % 0.0 in
23:07 20.8 °F 15.8 °F 1016.1 in Calm     73 % 0.0 in
23:12 20.9 °F 15.9 °F 1016.1 in Calm     73 % 0.0 in
23:17 20.9 °F 15.9 °F 1016.1 in Calm     73 % 0.0 in
23:22 20.7 °F 15.7 °F 1016.1 in Calm     73 % 0.0 in
23:32 20.7 °F 15.7 °F 1016.1 in Calm     73 % 0.0 in
23:37 20.7 °F 15.7 °F 1015.8 in Calm     73 % 0.0 in
23:42 20.6 °F 15.8 °F 1016.1 in Calm     74 % 0.0 in
23:47 20.3 °F 15.5 °F 1016.1 in Calm     74 % 0.0 in
23:52 20.1 °F 15.5 °F 1016.1 in Calm     75 % 0.0 in
23:57 20.1 °F 15.5 °F 1015.8 in Calm     75 % 0.0 in
Meteo18
Compliments of Weather Underground - 4 mb

Script developed by  Jim McMurry - jmcmurry@mwt.net Adapted for the template by  Wim van der Kuil - Leuven-Template.eu

You find our weather info also at:

European Weather Network

Weather Underground

Equipment we use:

Weather-station
Davis Vue

Weather-program
Meteobridge

Weather-server
Raspberry PI 2 B+

Provider
1 and 1

Davis Vue

Meteobridge

Raspberry PI 2 B+

1 and 1